sensor_id;sensor_type;location;lat;lon;timestamp;pressure;altitude;pressure_sealevel;temperature;humidity
56992;BME280;42885;49.754;18.636;2023-08-07T00:00:51;97081.34;;;17.17;100.00
56992;BME280;42885;49.754;18.636;2023-08-07T00:03:23;97082.00;;;17.27;100.00
56992;BME280;42885;49.754;18.636;2023-08-07T00:05:55;97076.38;;;17.18;100.00
56992;BME280;42885;49.754;18.636;2023-08-07T00:08:26;97085.28;;;17.04;100.00
56992;BME280;42885;49.754;18.636;2023-08-07T00:11:09;97081.16;;;17.14;100.00
56992;BME280;42885;49.754;18.636;2023-08-07T00:13:40;97083.64;;;17.12;100.00
56992;BME280;42885;49.754;18.636;2023-08-07T00:16:11;97082.49;;;17.23;100.00
56992;BME280;42885;49.754;18.636;2023-08-07T00:18:42;97083.98;;;17.38;100.00
56992;BME280;42885;49.754;18.636;2023-08-07T00:21:13;97080.52;;;17.29;100.00
56992;BME280;42885;49.754;18.636;2023-08-07T00:23:43;97086.31;;;17.32;100.00
56992;BME280;42885;49.754;18.636;2023-08-07T00:26:14;97083.48;;;17.42;100.00
56992;BME280;42885;49.754;18.636;2023-08-07T00:28:45;97088.13;;;17.61;100.00
56992;BME280;42885;49.754;18.636;2023-08-07T00:31:16;97085.14;;;17.47;100.00
56992;BME280;42885;49.754;18.636;2023-08-07T00:33:47;97092.91;;;17.57;100.00
56992;BME280;42885;49.754;18.636;2023-08-07T00:36:20;97084.48;;;17.62;100.00
56992;BME280;42885;49.754;18.636;2023-08-07T00:38:50;97077.38;;;17.42;100.00
56992;BME280;42885;49.754;18.636;2023-08-07T00:41:21;97075.05;;;17.47;100.00
56992;BME280;42885;49.754;18.636;2023-08-07T00:43:52;97076.70;;;17.52;100.00
56992;BME280;42885;49.754;18.636;2023-08-07T00:46:24;97077.88;;;17.54;100.00
56992;BME280;42885;49.754;18.636;2023-08-07T00:49:01;97081.67;;;17.51;100.00
56992;BME280;42885;49.754;18.636;2023-08-07T00:51:39;97080.34;;;17.59;100.00
56992;BME280;42885;49.754;18.636;2023-08-07T00:54:18;97079.51;;;17.51;100.00
56992;BME280;42885;49.754;18.636;2023-08-07T00:56:50;97074.39;;;17.37;100.00
56992;BME280;42885;49.754;18.636;2023-08-07T00:59:21;97062.32;;;17.17;100.00
56992;BME280;42885;49.754;18.636;2023-08-07T01:01:53;97061.00;;;17.26;100.00
56992;BME280;42885;49.754;18.636;2023-08-07T01:04:25;97060.67;;;17.33;100.00
56992;BME280;42885;49.754;18.636;2023-08-07T01:06:56;97058.72;;;17.35;100.00
56992;BME280;42885;49.754;18.636;2023-08-07T01:09:28;97057.53;;;17.21;100.00
56992;BME280;42885;49.754;18.636;2023-08-07T01:17:12;97054.58;;;17.32;100.00
56992;BME280;42885;49.754;18.636;2023-08-07T01:19:43;97059.54;;;17.23;100.00
56992;BME280;42885;49.754;18.636;2023-08-07T01:22:16;97059.25;;;18.03;100.00
56992;BME280;42885;49.754;18.636;2023-08-07T01:24:49;97061.02;;;17.30;100.00
56992;BME280;42885;49.754;18.636;2023-08-07T01:27:44;97064.33;;;17.44;100.00
56992;BME280;42885;49.754;18.636;2023-08-07T01:30:08;97064.00;;;17.35;100.00
56992;BME280;42885;49.754;18.636;2023-08-07T01:32:55;97064.64;;;17.25;100.00
56992;BME280;42885;49.754;18.636;2023-08-07T01:35:29;97068.13;;;17.33;100.00
56992;BME280;42885;49.754;18.636;2023-08-07T01:38:01;97070.44;;;17.32;100.00
56992;BME280;42885;49.754;18.636;2023-08-07T01:40:32;97077.55;;;17.28;100.00
56992;BME280;42885;49.754;18.636;2023-08-07T01:43:04;97080.01;;;17.29;100.00
56992;BME280;42885;49.754;18.636;2023-08-07T01:45:37;97085.62;;;17.30;100.00
56992;BME280;42885;49.754;18.636;2023-08-07T01:48:08;97083.15;;;17.33;100.00
56992;BME280;42885;49.754;18.636;2023-08-07T01:50:39;97080.19;;;17.11;100.00
56992;BME280;42885;49.754;18.636;2023-08-07T01:53:11;97089.20;;;16.96;100.00
56992;BME280;42885;49.754;18.636;2023-08-07T01:55:41;97093.17;;;16.92;100.00
56992;BME280;42885;49.754;18.636;2023-08-07T01:58:18;97093.32;;;16.90;100.00
56992;BME280;42885;49.754;18.636;2023-08-07T02:00:48;97096.92;;;16.69;100.00
56992;BME280;42885;49.754;18.636;2023-08-07T02:03:20;97094.09;;;16.70;100.00
56992;BME280;42885;49.754;18.636;2023-08-07T02:05:51;97086.33;;;16.60;100.00
56992;BME280;42885;49.754;18.636;2023-08-07T02:08:22;97090.44;;;16.63;100.00
56992;BME280;42885;49.754;18.636;2023-08-07T02:10:53;97091.17;;;16.82;100.00
56992;BME280;42885;49.754;18.636;2023-08-07T02:13:24;97086.50;;;16.71;100.00
56992;BME280;42885;49.754;18.636;2023-08-07T02:15:54;97092.09;;;16.60;100.00
56992;BME280;42885;49.754;18.636;2023-08-07T02:18:25;97093.41;;;16.64;100.00
56992;BME280;42885;49.754;18.636;2023-08-07T02:20:56;97094.41;;;16.63;100.00
56992;BME280;42885;49.754;18.636;2023-08-07T02:23:31;97098.74;;;16.76;100.00
56992;BME280;42885;49.754;18.636;2023-08-07T02:26:03;97098.89;;;16.75;100.00
56992;BME280;42885;49.754;18.636;2023-08-07T02:28:34;97101.19;;;16.61;100.00
56992;BME280;42885;49.754;18.636;2023-08-07T02:31:05;97105.98;;;16.70;100.00
56992;BME280;42885;49.754;18.636;2023-08-07T02:33:36;97101.72;;;16.73;100.00
56992;BME280;42885;49.754;18.636;2023-08-07T02:36:07;97101.03;;;16.67;100.00
56992;BME280;42885;49.754;18.636;2023-08-07T02:38:38;97099.05;;;16.69;100.00
56992;BME280;42885;49.754;18.636;2023-08-07T02:41:09;97093.39;;;16.51;100.00
56992;BME280;42885;49.754;18.636;2023-08-07T02:43:39;97093.39;;;16.51;100.00
56992;BME280;42885;49.754;18.636;2023-08-07T02:46:17;97101.31;;;16.51;100.00
56992;BME280;42885;49.754;18.636;2023-08-07T02:48:48;97110.25;;;16.59;100.00
56992;BME280;42885;49.754;18.636;2023-08-07T02:51:19;97103.34;;;16.66;100.00
56992;BME280;42885;49.754;18.636;2023-08-07T02:53:50;97103.83;;;16.61;100.00
56992;BME280;42885;49.754;18.636;2023-08-07T02:56:21;97107.79;;;16.61;100.00
56992;BME280;42885;49.754;18.636;2023-08-07T02:58:51;97109.34;;;16.42;100.00
56992;BME280;42885;49.754;18.636;2023-08-07T03:01:22;97110.03;;;16.44;100.00
56992;BME280;42885;49.754;18.636;2023-08-07T03:03:56;97106.41;;;16.45;100.00
56992;BME280;42885;49.754;18.636;2023-08-07T03:06:27;97110.19;;;16.42;100.00
56992;BME280;42885;49.754;18.636;2023-08-07T03:08:58;97115.47;;;16.46;100.00
56992;BME280;42885;49.754;18.636;2023-08-07T03:11:28;97109.86;;;16.45;100.00
56992;BME280;42885;49.754;18.636;2023-08-07T03:13:59;97113.48;;;16.44;100.00
56992;BME280;42885;49.754;18.636;2023-08-07T03:16:30;97117.59;;;16.43;100.00
56992;BME280;42885;49.754;18.636;2023-08-07T03:19:01;97121.77;;;16.54;100.00
56992;BME280;42885;49.754;18.636;2023-08-07T03:21:32;97123.09;;;16.49;100.00
56992;BME280;42885;49.754;18.636;2023-08-07T03:24:02;97128.02;;;16.44;100.00
56992;BME280;42885;49.754;18.636;2023-08-07T03:26:39;97124.53;;;16.40;100.00
56992;BME280;42885;49.754;18.636;2023-08-07T03:29:10;97122.77;;;16.48;100.00
56992;BME280;42885;49.754;18.636;2023-08-07T03:31:45;97112.80;;;16.38;100.00
56992;BME280;42885;49.754;18.636;2023-08-07T03:34:15;97110.70;;;16.50;100.00
56992;BME280;42885;49.754;18.636;2023-08-07T03:36:46;97123.39;;;16.42;100.00
56992;BME280;42885;49.754;18.636;2023-08-07T03:39:17;97123.72;;;16.43;100.00
56992;BME280;42885;49.754;18.636;2023-08-07T03:41:49;97127.61;;;16.31;100.00
56992;BME280;42885;49.754;18.636;2023-08-07T03:44:20;97128.81;;;16.36;100.00
56992;BME280;42885;49.754;18.636;2023-08-07T03:46:51;97127.27;;;16.30;100.00
56992;BME280;42885;49.754;18.636;2023-08-07T03:49:25;97133.36;;;16.22;100.00
56992;BME280;42885;49.754;18.636;2023-08-07T03:51:56;97133.41;;;16.34;100.00
56992;BME280;42885;49.754;18.636;2023-08-07T03:54:28;97131.56;;;16.31;100.00
56992;BME280;42885;49.754;18.636;2023-08-07T03:57:00;97131.89;;;16.28;100.00
56992;BME280;42885;49.754;18.636;2023-08-07T03:59:31;97139.19;;;16.34;100.00
56992;BME280;42885;49.754;18.636;2023-08-07T04:02:02;97140.52;;;16.38;100.00
56992;BME280;42885;49.754;18.636;2023-08-07T04:04:33;97145.83;;;16.42;100.00
56992;BME280;42885;49.754;18.636;2023-08-07T04:07:04;97142.45;;;16.23;100.00
56992;BME280;42885;49.754;18.636;2023-08-07T04:09:35;97143.25;;;16.20;100.00
56992;BME280;42885;49.754;18.636;2023-08-07T04:12:06;97138.83;;;16.29;100.00
56992;BME280;42885;49.754;18.636;2023-08-07T04:14:36;97141.46;;;16.29;100.00
56992;BME280;42885;49.754;18.636;2023-08-07T04:17:13;97145.14;;;16.36;100.00
56992;BME280;42885;49.754;18.636;2023-08-07T04:19:51;97146.08;;;16.27;100.00
56992;BME280;42885;49.754;18.636;2023-08-07T04:22:22;97147.27;;;16.32;100.00
56992;BME280;42885;49.754;18.636;2023-08-07T04:24:57;97151.59;;;16.42;100.00
56992;BME280;42885;49.754;18.636;2023-08-07T04:27:37;97149.02;;;16.54;100.00
56992;BME280;42885;49.754;18.636;2023-08-07T04:30:09;97151.34;;;16.53;100.00
56992;BME280;42885;49.754;18.636;2023-08-07T04:32:45;97152.47;;;16.50;100.00
56992;BME280;42885;49.754;18.636;2023-08-07T04:35:18;97143.52;;;16.43;100.00
56992;BME280;42885;49.754;18.636;2023-08-07T04:37:50;97150.71;;;17.11;100.00
56992;BME280;42885;49.754;18.636;2023-08-07T04:40:20;97150.97;;;16.48;100.00
56992;BME280;42885;49.754;18.636;2023-08-07T04:42:53;97152.98;;;16.54;100.00
56992;BME280;42885;49.754;18.636;2023-08-07T04:45:30;97154.42;;;16.44;100.00
56992;BME280;42885;49.754;18.636;2023-08-07T04:48:14;97154.12;;;16.51;100.00
56992;BME280;42885;49.754;18.636;2023-08-07T04:50:44;97159.03;;;16.42;100.00
56992;BME280;42885;49.754;18.636;2023-08-07T04:53:15;97162.84;;;16.44;100.00
56992;BME280;42885;49.754;18.636;2023-08-07T04:55:46;97155.73;;;16.44;100.00
56992;BME280;42885;49.754;18.636;2023-08-07T04:58:17;97158.56;;;16.51;100.00
56992;BME280;42885;49.754;18.636;2023-08-07T05:00:48;97152.66;;;16.53;100.00
56992;BME280;42885;49.754;18.636;2023-08-07T05:03:20;97150.73;;;16.33;100.00
56992;BME280;42885;49.754;18.636;2023-08-07T05:05:51;97151.08;;;16.38;100.00
56992;BME280;42885;49.754;18.636;2023-08-07T05:08:23;97159.47;;;16.33;100.00
56992;BME280;42885;49.754;18.636;2023-08-07T05:10:56;97151.58;;;16.81;100.00
56992;BME280;42885;49.754;18.636;2023-08-07T05:13:27;97154.66;;;17.02;100.00
56992;BME280;42885;49.754;18.636;2023-08-07T05:15:58;97163.41;;;16.64;100.00
56992;BME280;42885;49.754;18.636;2023-08-07T05:18:33;97164.65;;;16.43;100.00
56992;BME280;42885;49.754;18.636;2023-08-07T05:21:09;97164.50;;;16.49;100.00
56992;BME280;42885;49.754;18.636;2023-08-07T05:23:40;97160.43;;;16.59;100.00
56992;BME280;42885;49.754;18.636;2023-08-07T05:26:11;97170.52;;;16.63;100.00
56992;BME280;42885;49.754;18.636;2023-08-07T05:28:41;97171.03;;;16.67;100.00
56992;BME280;42885;49.754;18.636;2023-08-07T05:31:12;97165.60;;;16.73;100.00
56992;BME280;42885;49.754;18.636;2023-08-07T05:33:43;97172.27;;;16.85;100.00
56992;BME280;42885;49.754;18.636;2023-08-07T05:36:14;97173.59;;;16.85;100.00
56992;BME280;42885;49.754;18.636;2023-08-07T05:38:45;97171.03;;;17.02;100.00
56992;BME280;42885;49.754;18.636;2023-08-07T05:41:20;97175.16;;;17.09;100.00
56992;BME280;42885;49.754;18.636;2023-08-07T05:43:51;97176.25;;;16.98;100.00
56992;BME280;42885;49.754;18.636;2023-08-07T05:46:22;97176.20;;;17.24;100.00
56992;BME280;42885;49.754;18.636;2023-08-07T05:48:59;97178.69;;;17.38;100.00
56992;BME280;42885;49.754;18.636;2023-08-07T05:51:30;97175.70;;;17.33;100.00
56992;BME280;42885;49.754;18.636;2023-08-07T05:54:00;97167.27;;;17.38;100.00
56992;BME280;42885;49.754;18.636;2023-08-07T05:56:31;97175.39;;;17.36;100.00
56992;BME280;42885;49.754;18.636;2023-08-07T05:59:05;97175.51;;;17.22;100.00
56992;BME280;42885;49.754;18.636;2023-08-07T06:01:42;97182.02;;;17.44;100.00
56992;BME280;42885;49.754;18.636;2023-08-07T06:04:13;97175.22;;;17.46;100.00
56992;BME280;42885;49.754;18.636;2023-08-07T06:06:44;97183.48;;;17.43;100.00
56992;BME280;42885;49.754;18.636;2023-08-07T06:09:15;97187.95;;;17.38;100.00
56992;BME280;42885;49.754;18.636;2023-08-07T06:11:56;97195.09;;;17.67;100.00
56992;BME280;42885;49.754;18.636;2023-08-07T06:14:27;97188.95;;;17.99;100.00
56992;BME280;42885;49.754;18.636;2023-08-07T06:17:01;97196.39;;;17.54;100.00
56992;BME280;42885;49.754;18.636;2023-08-07T06:19:35;97201.03;;;17.60;100.00
56992;BME280;42885;49.754;18.636;2023-08-07T06:22:06;97202.97;;;17.38;100.00
56992;BME280;42885;49.754;18.636;2023-08-07T06:24:46;97197.06;;;17.48;100.00
56992;BME280;42885;49.754;18.636;2023-08-07T06:27:18;97194.58;;;17.55;100.00
56992;BME280;42885;49.754;18.636;2023-08-07T06:29:49;97204.85;;;17.79;100.00
56992;BME280;42885;49.754;18.636;2023-08-07T06:32:20;97198.39;;;17.94;100.00
56992;BME280;42885;49.754;18.636;2023-08-07T06:34:51;97210.64;;;17.74;100.00
56992;BME280;42885;49.754;18.636;2023-08-07T06:37:25;97201.38;;;17.74;100.00
56992;BME280;42885;49.754;18.636;2023-08-07T06:40:05;97212.75;;;17.50;100.00
56992;BME280;42885;49.754;18.636;2023-08-07T06:42:38;97210.41;;;17.30;100.00
56992;BME280;42885;49.754;18.636;2023-08-07T06:45:09;97214.97;;;17.07;100.00
56992;BME280;42885;49.754;18.636;2023-08-07T06:47:43;97211.94;;;16.98;100.00
56992;BME280;42885;49.754;18.636;2023-08-07T06:50:14;97209.73;;;17.19;100.00
56992;BME280;42885;49.754;18.636;2023-08-07T06:52:45;97210.72;;;17.18;100.00
56992;BME280;42885;49.754;18.636;2023-08-07T06:55:16;97213.03;;;17.22;100.00
56992;BME280;42885;49.754;18.636;2023-08-07T06:57:47;97215.80;;;17.12;100.00
56992;BME280;42885;49.754;18.636;2023-08-07T07:00:18;97214.45;;;17.03;100.00
56992;BME280;42885;49.754;18.636;2023-08-07T07:02:48;97221.77;;;17.22;100.00
56992;BME280;42885;49.754;18.636;2023-08-07T07:05:22;97223.77;;;17.16;100.00
56992;BME280;42885;49.754;18.636;2023-08-07T07:07:53;97226.65;;;17.43;100.00
56992;BME280;42885;49.754;18.636;2023-08-07T07:10:24;97223.00;;;17.48;100.00
56992;BME280;42885;49.754;18.636;2023-08-07T07:12:55;97224.47;;;17.47;100.00
56992;BME280;42885;49.754;18.636;2023-08-07T07:15:26;97228.16;;;17.87;100.00
56992;BME280;42885;49.754;18.636;2023-08-07T07:17:57;97231.64;;;17.96;100.00
56992;BME280;42885;49.754;18.636;2023-08-07T07:20:28;97227.14;;;17.64;100.00
56992;BME280;42885;49.754;18.636;2023-08-07T07:22:59;97230.47;;;17.78;100.00
56992;BME280;42885;49.754;18.636;2023-08-07T07:25:30;97237.77;;;18.01;100.00
56992;BME280;42885;49.754;18.636;2023-08-07T07:28:13;97236.77;;;18.02;100.00
56992;BME280;42885;49.754;18.636;2023-08-07T07:30:59;97235.27;;;17.62;100.00
56992;BME280;42885;49.754;18.636;2023-08-07T07:33:30;97242.85;;;17.57;100.00
56992;BME280;42885;49.754;18.636;2023-08-07T07:36:05;97242.94;;;18.11;100.00
56992;BME280;42885;49.754;18.636;2023-08-07T07:38:36;97246.02;;;17.56;100.00
56992;BME280;42885;49.754;18.636;2023-08-07T07:41:07;97252.98;;;17.74;100.00
56992;BME280;42885;49.754;18.636;2023-08-07T07:43:39;97255.78;;;17.81;100.00
56992;BME280;42885;49.754;18.636;2023-08-07T07:46:10;97258.48;;;18.06;100.00
56992;BME280;42885;49.754;18.636;2023-08-07T07:48:41;97262.21;;;17.57;100.00
56992;BME280;42885;49.754;18.636;2023-08-07T07:51:16;97261.02;;;17.47;100.00
56992;BME280;42885;49.754;18.636;2023-08-07T07:53:46;97263.05;;;17.62;100.00
56992;BME280;42885;49.754;18.636;2023-08-07T07:56:17;97259.50;;;17.32;100.00
56992;BME280;42885;49.754;18.636;2023-08-07T07:58:48;97271.30;;;17.67;100.00
56992;BME280;42885;49.754;18.636;2023-08-07T08:01:19;97274.93;;;17.54;100.00
56992;BME280;42885;49.754;18.636;2023-08-07T08:03:50;97271.17;;;17.73;100.00
56992;BME280;42885;49.754;18.636;2023-08-07T08:06:25;97273.33;;;17.98;100.00
56992;BME280;42885;49.754;18.636;2023-08-07T08:08:57;97276.16;;;18.30;100.00
56992;BME280;42885;49.754;18.636;2023-08-07T08:11:29;97269.90;;;18.31;100.00
56992;BME280;42885;49.754;18.636;2023-08-07T08:13:59;97262.07;;;18.50;100.00
56992;BME280;42885;49.754;18.636;2023-08-07T08:16:30;97268.69;;;18.50;100.00
56992;BME280;42885;49.754;18.636;2023-08-07T08:19:03;97269.88;;;18.35;100.00
56992;BME280;42885;49.754;18.636;2023-08-07T08:21:34;97272.38;;;18.20;100.00
56992;BME280;42885;49.754;18.636;2023-08-07T08:24:05;97281.97;;;18.38;100.00
56992;BME280;42885;49.754;18.636;2023-08-07T08:26:36;97284.12;;;18.18;100.00
56992;BME280;42885;49.754;18.636;2023-08-07T08:29:07;97288.42;;;18.48;100.00
56992;BME280;42885;49.754;18.636;2023-08-07T08:31:40;97292.68;;;17.95;100.00
56992;BME280;42885;49.754;18.636;2023-08-07T08:34:17;97295.66;;;17.83;100.00
56992;BME280;42885;49.754;18.636;2023-08-07T08:36:52;97298.81;;;17.95;100.00
56992;BME280;42885;49.754;18.636;2023-08-07T08:39:22;97297.30;;;17.76;100.00
56992;BME280;42885;49.754;18.636;2023-08-07T08:42:02;97295.52;;;17.93;100.00
56992;BME280;42885;49.754;18.636;2023-08-07T08:44:40;97299.02;;;18.27;100.00
56992;BME280;42885;49.754;18.636;2023-08-07T08:47:13;97294.69;;;18.47;100.00
56992;BME280;42885;49.754;18.636;2023-08-07T08:49:47;97304.16;;;18.28;100.00
56992;BME280;42885;49.754;18.636;2023-08-07T08:52:18;97304.48;;;18.38;100.00
56992;BME280;42885;49.754;18.636;2023-08-07T08:54:58;97305.89;;;18.86;100.00
56992;BME280;42885;49.754;18.636;2023-08-07T08:57:40;97312.06;;;18.66;100.00
56992;BME280;42885;49.754;18.636;2023-08-07T09:00:17;97309.28;;;18.42;100.00
56992;BME280;42885;49.754;18.636;2023-08-07T09:02:52;97303.29;;;18.61;100.00
56992;BME280;42885;49.754;18.636;2023-08-07T09:05:30;97309.91;;;18.69;100.00
56992;BME280;42885;49.754;18.636;2023-08-07T09:08:02;97306.98;;;19.17;100.00
56992;BME280;42885;49.754;18.636;2023-08-07T09:10:33;97296.38;;;19.52;100.00
56992;BME280;42885;49.754;18.636;2023-08-07T09:13:08;97299.47;;;19.92;100.00
56992;BME280;42885;49.754;18.636;2023-08-07T09:15:39;97306.33;;;20.14;100.00
56992;BME280;42885;49.754;18.636;2023-08-07T09:18:19;97304.98;;;19.59;100.00
56992;BME280;42885;49.754;18.636;2023-08-07T09:20:52;97308.20;;;19.42;100.00
56992;BME280;42885;49.754;18.636;2023-08-07T09:23:24;97315.81;;;19.09;100.00
56992;BME280;42885;49.754;18.636;2023-08-07T09:26:13;97322.80;;;18.89;100.00
56992;BME280;42885;49.754;18.636;2023-08-07T09:28:44;97334.59;;;18.57;100.00
56992;BME280;42885;49.754;18.636;2023-08-07T09:31:17;97325.82;;;18.20;100.00
56992;BME280;42885;49.754;18.636;2023-08-07T09:33:48;97335.74;;;18.55;100.00
56992;BME280;42885;49.754;18.636;2023-08-07T09:36:19;97337.30;;;17.69;100.00
56992;BME280;42885;49.754;18.636;2023-08-07T09:38:50;97338.40;;;18.09;100.00
56992;BME280;42885;49.754;18.636;2023-08-07T09:41:22;97332.77;;;18.29;100.00
56992;BME280;42885;49.754;18.636;2023-08-07T09:43:53;97334.61;;;18.20;100.00
56992;BME280;42885;49.754;18.636;2023-08-07T09:46:26;97341.72;;;18.15;100.00
56992;BME280;42885;49.754;18.636;2023-08-07T09:48:58;97344.69;;;18.21;100.00
56992;BME280;42885;49.754;18.636;2023-08-07T09:51:40;97345.45;;;17.88;100.00
56992;BME280;42885;49.754;18.636;2023-08-07T09:54:08;97350.41;;;17.91;100.00
56992;BME280;42885;49.754;18.636;2023-08-07T09:56:40;97351.23;;;17.83;100.00
56992;BME280;42885;49.754;18.636;2023-08-07T09:59:14;97356.11;;;18.13;100.00
56992;BME280;42885;49.754;18.636;2023-08-07T10:01:55;97353.80;;;18.22;100.00
56992;BME280;42885;49.754;18.636;2023-08-07T10:04:28;97353.33;;;18.39;100.00
56992;BME280;42885;49.754;18.636;2023-08-07T10:06:59;97359.08;;;18.80;100.00
56992;BME280;42885;49.754;18.636;2023-08-07T10:09:32;97353.77;;;19.05;100.00
56992;BME280;42885;49.754;18.636;2023-08-07T10:12:09;97365.38;;;18.88;100.00
56992;BME280;42885;49.754;18.636;2023-08-07T10:14:47;97365.19;;;19.10;100.00
56992;BME280;42885;49.754;18.636;2023-08-07T10:17:24;97366.47;;;19.31;100.00
56992;BME280;42885;49.754;18.636;2023-08-07T10:20:13;97368.41;;;19.37;100.00
56992;BME280;42885;49.754;18.636;2023-08-07T10:23:08;97374.72;;;19.40;100.00
56992;BME280;42885;49.754;18.636;2023-08-07T10:25:59;97371.33;;;19.10;100.00
56992;BME280;42885;49.754;18.636;2023-08-07T10:28:33;97374.02;;;18.44;100.00
56992;BME280;42885;49.754;18.636;2023-08-07T10:31:11;97375.81;;;18.27;100.00
56992;BME280;42885;49.754;18.636;2023-08-07T10:33:43;97385.08;;;18.14;100.00
56992;BME280;42885;49.754;18.636;2023-08-07T10:36:21;97386.66;;;18.03;100.00
56992;BME280;42885;49.754;18.636;2023-08-07T10:39:08;97389.89;;;18.32;100.00
56992;BME280;42885;49.754;18.636;2023-08-07T10:41:52;97394.81;;;17.58;100.00
56992;BME280;42885;49.754;18.636;2023-08-07T10:44:23;97396.34;;;17.73;100.00
56992;BME280;42885;49.754;18.636;2023-08-07T10:46:55;97396.73;;;17.91;100.00
56992;BME280;42885;49.754;18.636;2023-08-07T10:49:33;97404.25;;;17.61;100.00
56992;BME280;42885;49.754;18.636;2023-08-07T10:52:11;97402.41;;;17.57;100.00
56992;BME280;42885;49.754;18.636;2023-08-07T10:54:46;97406.53;;;17.56;100.00
56992;BME280;42885;49.754;18.636;2023-08-07T10:57:19;97404.14;;;17.40;100.00
56992;BME280;42885;49.754;18.636;2023-08-07T11:02:32;97401.36;;;16.93;100.00
56992;BME280;42885;49.754;18.636;2023-08-07T11:05:09;97401.27;;;17.29;100.00
56992;BME280;42885;49.754;18.636;2023-08-07T11:07:41;97400.13;;;17.67;100.00
56992;BME280;42885;49.754;18.636;2023-08-07T11:10:15;97401.72;;;17.51;100.00
56992;BME280;42885;49.754;18.636;2023-08-07T11:12:46;97410.34;;;17.57;100.00
56992;BME280;42885;49.754;18.636;2023-08-07T11:15:25;97396.59;;;18.01;100.00
56992;BME280;42885;49.754;18.636;2023-08-07T11:17:59;97393.73;;;17.78;100.00
56992;BME280;42885;49.754;18.636;2023-08-07T11:20:32;97402.75;;;17.58;100.00
56992;BME280;42885;49.754;18.636;2023-08-07T11:23:02;97400.10;;;17.58;100.00
56992;BME280;42885;49.754;18.636;2023-08-07T11:25:38;97402.86;;;17.48;100.00
56992;BME280;42885;49.754;18.636;2023-08-07T11:28:20;97417.47;;;17.30;100.00
56992;BME280;42885;49.754;18.636;2023-08-07T11:30:56;97435.30;;;17.24;100.00
56992;BME280;42885;49.754;18.636;2023-08-07T11:33:28;97461.18;;;17.16;100.00
56992;BME280;42885;49.754;18.636;2023-08-07T11:36:03;97468.67;;;16.62;100.00
56992;BME280;42885;49.754;18.636;2023-08-07T11:38:38;97469.63;;;16.11;100.00
56992;BME280;42885;49.754;18.636;2023-08-07T11:41:13;97469.69;;;16.15;100.00
56992;BME280;42885;49.754;18.636;2023-08-07T11:43:48;97476.74;;;16.29;100.00
56992;BME280;42885;49.754;18.636;2023-08-07T11:46:22;97482.19;;;15.99;100.00
56992;BME280;42885;49.754;18.636;2023-08-07T11:48:53;97482.84;;;16.43;100.00
56992;BME280;42885;49.754;18.636;2023-08-07T11:51:25;97486.96;;;16.60;100.00
56992;BME280;42885;49.754;18.636;2023-08-07T11:54:00;97490.34;;;16.34;100.00
56992;BME280;42885;49.754;18.636;2023-08-07T11:56:31;97501.53;;;16.18;100.00
56992;BME280;42885;49.754;18.636;2023-08-07T11:59:08;97503.34;;;16.31;100.00
56992;BME280;42885;49.754;18.636;2023-08-07T12:01:39;97508.23;;;16.40;100.00
56992;BME280;42885;49.754;18.636;2023-08-07T12:04:12;97509.83;;;16.37;100.00
56992;BME280;42885;49.754;18.636;2023-08-07T12:06:56;97513.15;;;16.39;100.00
56992;BME280;42885;49.754;18.636;2023-08-07T12:09:28;97516.20;;;16.30;100.00
56992;BME280;42885;49.754;18.636;2023-08-07T12:12:02;97522.58;;;16.23;100.00
56992;BME280;42885;49.754;18.636;2023-08-07T12:14:35;97525.02;;;16.21;100.00
56992;BME280;42885;49.754;18.636;2023-08-07T12:17:10;97532.23;;;16.05;100.00
56992;BME280;42885;49.754;18.636;2023-08-07T12:19:41;97533.78;;;15.98;100.00
56992;BME280;42885;49.754;18.636;2023-08-07T12:22:19;97537.27;;;16.12;100.00
56992;BME280;42885;49.754;18.636;2023-08-07T12:24:51;97536.83;;;16.03;100.00
56992;BME280;42885;49.754;18.636;2023-08-07T12:27:21;97548.25;;;15.83;100.00
56992;BME280;42885;49.754;18.636;2023-08-07T12:29:52;97548.80;;;15.87;100.00
56992;BME280;42885;49.754;18.636;2023-08-07T12:32:29;97554.28;;;15.90;100.00
56992;BME280;42885;49.754;18.636;2023-08-07T12:35:00;97554.38;;;15.94;100.00
56992;BME280;42885;49.754;18.636;2023-08-07T12:37:37;97560.84;;;15.86;100.00
56992;BME280;42885;49.754;18.636;2023-08-07T12:40:10;97563.04;;;15.66;100.00
56992;BME280;42885;49.754;18.636;2023-08-07T12:42:41;97566.30;;;16.12;100.00
56992;BME280;42885;49.754;18.636;2023-08-07T12:45:15;97565.55;;;15.58;100.00
56992;BME280;42885;49.754;18.636;2023-08-07T12:47:46;97567.59;;;15.64;100.00
56992;BME280;42885;49.754;18.636;2023-08-07T12:50:28;97570.28;;;15.45;100.00
56992;BME280;42885;49.754;18.636;2023-08-07T12:53:05;97565.55;;;15.58;100.00
56992;BME280;42885;49.754;18.636;2023-08-07T12:55:39;97569.45;;;15.78;100.00
56992;BME280;42885;49.754;18.636;2023-08-07T12:58:10;97576.48;;;15.73;100.00
56992;BME280;42885;49.754;18.636;2023-08-07T13:00:41;97567.80;;;15.77;100.00
56992;BME280;42885;49.754;18.636;2023-08-07T13:03:12;97571.55;;;15.74;100.00
56992;BME280;42885;49.754;18.636;2023-08-07T13:05:48;97573.19;;;15.85;100.00
56992;BME280;42885;49.754;18.636;2023-08-07T13:08:21;97571.86;;;15.85;100.00
56992;BME280;42885;49.754;18.636;2023-08-07T13:10:58;97565.95;;;15.87;100.00
56992;BME280;42885;49.754;18.636;2023-08-07T13:13:32;97570.09;;;15.76;100.00
56992;BME280;42885;49.754;18.636;2023-08-07T13:16:15;97568.55;;;15.83;100.00
56992;BME280;42885;49.754;18.636;2023-08-07T13:19:01;97569.14;;;16.01;100.00